sensor_id;sensor_type;location;lat;lon;timestamp;P1;durP1;ratioP1;P2;durP2;ratioP2
40533;SDS011;26233;51.894;10.192;2022-12-11T00:00:12;11.83;;;9.43;;
40533;SDS011;26233;51.894;10.192;2022-12-11T00:02:40;14.90;;;10.53;;
40533;SDS011;26233;51.894;10.192;2022-12-11T00:05:09;12.57;;;9.73;;
40533;SDS011;26233;51.894;10.192;2022-12-11T00:07:36;16.50;;;12.53;;
40533;SDS011;26233;51.894;10.192;2022-12-11T00:10:06;17.17;;;12.10;;
40533;SDS011;26233;51.894;10.192;2022-12-11T00:12:38;12.93;;;10.30;;
40533;SDS011;26233;51.894;10.192;2022-12-11T00:15:05;11.87;;;9.07;;
40533;SDS011;26233;51.894;10.192;2022-12-11T00:17:33;9.10;;;7.53;;
40533;SDS011;26233;51.894;10.192;2022-12-11T00:20:01;9.00;;;7.40;;
40533;SDS011;26233;51.894;10.192;2022-12-11T00:22:30;8.93;;;6.70;;
40533;SDS011;26233;51.894;10.192;2022-12-11T00:24:57;7.30;;;6.13;;
40533;SDS011;26233;51.894;10.192;2022-12-11T00:27:24;8.33;;;6.00;;
40533;SDS011;26233;51.894;10.192;2022-12-11T00:29:51;8.33;;;6.40;;
40533;SDS011;26233;51.894;10.192;2022-12-11T00:32:18;7.57;;;6.10;;
40533;SDS011;26233;51.894;10.192;2022-12-11T00:34:46;6.67;;;5.87;;
40533;SDS011;26233;51.894;10.192;2022-12-11T00:37:13;7.07;;;5.73;;
40533;SDS011;26233;51.894;10.192;2022-12-11T00:39:41;7.10;;;5.93;;
40533;SDS011;26233;51.894;10.192;2022-12-11T00:42:08;7.90;;;6.30;;
40533;SDS011;26233;51.894;10.192;2022-12-11T00:44:35;6.87;;;6.00;;
40533;SDS011;26233;51.894;10.192;2022-12-11T00:47:02;8.63;;;6.77;;
40533;SDS011;26233;51.894;10.192;2022-12-11T00:49:30;7.77;;;6.37;;
40533;SDS011;26233;51.894;10.192;2022-12-11T00:51:57;8.23;;;6.57;;
40533;SDS011;26233;51.894;10.192;2022-12-11T00:54:24;7.87;;;6.23;;
40533;SDS011;26233;51.894;10.192;2022-12-11T00:56:52;7.27;;;6.23;;
40533;SDS011;26233;51.894;10.192;2022-12-11T00:59:21;6.60;;;5.50;;
40533;SDS011;26233;51.894;10.192;2022-12-11T01:01:48;7.63;;;6.10;;
40533;SDS011;26233;51.894;10.192;2022-12-11T01:04:15;8.93;;;6.70;;
40533;SDS011;26233;51.894;10.192;2022-12-11T01:06:42;7.33;;;6.20;;
40533;SDS011;26233;51.894;10.192;2022-12-11T01:09:09;6.90;;;6.20;;
40533;SDS011;26233;51.894;10.192;2022-12-11T01:12:00;7.27;;;6.07;;
40533;SDS011;26233;51.894;10.192;2022-12-11T01:14:29;6.53;;;5.87;;
40533;SDS011;26233;51.894;10.192;2022-12-11T01:16:56;7.57;;;5.97;;
40533;SDS011;26233;51.894;10.192;2022-12-11T01:19:23;7.17;;;5.90;;
40533;SDS011;26233;51.894;10.192;2022-12-11T01:21:50;6.83;;;5.73;;
40533;SDS011;26233;51.894;10.192;2022-12-11T01:24:17;7.33;;;5.97;;
40533;SDS011;26233;51.894;10.192;2022-12-11T01:26:44;6.20;;;5.50;;
40533;SDS011;26233;51.894;10.192;2022-12-11T01:29:13;6.43;;;5.43;;
40533;SDS011;26233;51.894;10.192;2022-12-11T01:31:40;6.70;;;5.53;;
40533;SDS011;26233;51.894;10.192;2022-12-11T01:34:07;6.67;;;5.57;;
40533;SDS011;26233;51.894;10.192;2022-12-11T01:36:34;5.90;;;5.30;;
40533;SDS011;26233;51.894;10.192;2022-12-11T01:39:01;7.70;;;6.07;;
40533;SDS011;26233;51.894;10.192;2022-12-11T01:41:28;6.37;;;5.27;;
40533;SDS011;26233;51.894;10.192;2022-12-11T01:43:56;5.87;;;5.20;;
40533;SDS011;26233;51.894;10.192;2022-12-11T01:46:27;7.80;;;5.77;;
40533;SDS011;26233;51.894;10.192;2022-12-11T01:48:55;7.00;;;5.67;;
40533;SDS011;26233;51.894;10.192;2022-12-11T01:51:24;7.00;;;5.60;;
40533;SDS011;26233;51.894;10.192;2022-12-11T01:53:57;6.47;;;5.70;;
40533;SDS011;26233;51.894;10.192;2022-12-11T01:56:30;6.17;;;5.13;;
40533;SDS011;26233;51.894;10.192;2022-12-11T01:59:00;6.03;;;5.10;;
40533;SDS011;26233;51.894;10.192;2022-12-11T02:01:33;6.13;;;5.53;;
40533;SDS011;26233;51.894;10.192;2022-12-11T02:04:04;7.87;;;5.60;;
40533;SDS011;26233;51.894;10.192;2022-12-11T02:06:34;6.80;;;5.40;;
40533;SDS011;26233;51.894;10.192;2022-12-11T02:09:03;6.50;;;5.53;;
40533;SDS011;26233;51.894;10.192;2022-12-11T02:11:38;6.27;;;5.37;;
40533;SDS011;26233;51.894;10.192;2022-12-11T02:14:18;6.23;;;5.53;;
40533;SDS011;26233;51.894;10.192;2022-12-11T02:16:56;7.20;;;5.80;;
40533;SDS011;26233;51.894;10.192;2022-12-11T02:22:26;6.10;;;4.90;;
40533;SDS011;26233;51.894;10.192;2022-12-11T02:25:09;7.83;;;5.17;;
40533;SDS011;26233;51.894;10.192;2022-12-11T02:27:46;7.07;;;5.40;;
40533;SDS011;26233;51.894;10.192;2022-12-11T02:30:22;6.93;;;5.60;;
40533;SDS011;26233;51.894;10.192;2022-12-11T02:32:52;6.43;;;5.50;;
40533;SDS011;26233;51.894;10.192;2022-12-11T02:35:23;7.30;;;6.27;;
40533;SDS011;26233;51.894;10.192;2022-12-11T02:37:56;8.00;;;6.30;;
40533;SDS011;26233;51.894;10.192;2022-12-11T02:40:29;6.97;;;5.70;;
40533;SDS011;26233;51.894;10.192;2022-12-11T02:43:02;8.20;;;6.70;;
40533;SDS011;26233;51.894;10.192;2022-12-11T02:45:34;7.40;;;6.13;;
40533;SDS011;26233;51.894;10.192;2022-12-11T02:48:03;7.33;;;6.33;;
40533;SDS011;26233;51.894;10.192;2022-12-11T02:50:33;7.87;;;6.40;;
40533;SDS011;26233;51.894;10.192;2022-12-11T02:53:07;7.93;;;6.77;;
40533;SDS011;26233;51.894;10.192;2022-12-11T02:55:38;7.77;;;6.50;;
40533;SDS011;26233;51.894;10.192;2022-12-11T02:58:08;9.03;;;6.83;;
40533;SDS011;26233;51.894;10.192;2022-12-11T03:00:43;8.03;;;6.63;;
40533;SDS011;26233;51.894;10.192;2022-12-11T03:03:12;7.23;;;6.47;;
40533;SDS011;26233;51.894;10.192;2022-12-11T03:05:39;8.00;;;6.87;;
40533;SDS011;26233;51.894;10.192;2022-12-11T03:08:11;9.87;;;7.30;;
40533;SDS011;26233;51.894;10.192;2022-12-11T03:10:41;8.97;;;7.33;;
40533;SDS011;26233;51.894;10.192;2022-12-11T03:13:08;8.07;;;6.70;;
40533;SDS011;26233;51.894;10.192;2022-12-11T03:15:37;7.17;;;6.40;;
40533;SDS011;26233;51.894;10.192;2022-12-11T03:18:17;7.80;;;6.93;;
40533;SDS011;26233;51.894;10.192;2022-12-11T03:20:53;7.40;;;6.60;;
40533;SDS011;26233;51.894;10.192;2022-12-11T03:23:31;7.90;;;6.50;;
40533;SDS011;26233;51.894;10.192;2022-12-11T03:26:05;7.57;;;6.20;;
40533;SDS011;26233;51.894;10.192;2022-12-11T03:28:37;7.10;;;6.30;;
40533;SDS011;26233;51.894;10.192;2022-12-11T03:31:13;7.70;;;6.13;;
40533;SDS011;26233;51.894;10.192;2022-12-11T03:33:46;8.47;;;6.13;;
40533;SDS011;26233;51.894;10.192;2022-12-11T03:36:19;8.77;;;6.03;;
40533;SDS011;26233;51.894;10.192;2022-12-11T03:38:51;7.33;;;5.87;;
40533;SDS011;26233;51.894;10.192;2022-12-11T03:41:25;7.07;;;5.20;;
40533;SDS011;26233;51.894;10.192;2022-12-11T03:43:55;6.47;;;5.40;;
40533;SDS011;26233;51.894;10.192;2022-12-11T03:46:27;7.87;;;6.17;;
40533;SDS011;26233;51.894;10.192;2022-12-11T03:49:00;8.67;;;6.77;;
40533;SDS011;26233;51.894;10.192;2022-12-11T03:51:36;7.30;;;6.00;;
40533;SDS011;26233;51.894;10.192;2022-12-11T03:54:04;9.00;;;6.70;;
40533;SDS011;26233;51.894;10.192;2022-12-11T03:56:32;7.10;;;6.07;;
40533;SDS011;26233;51.894;10.192;2022-12-11T03:59:03;7.00;;;6.07;;
40533;SDS011;26233;51.894;10.192;2022-12-11T04:01:31;7.47;;;5.87;;
40533;SDS011;26233;51.894;10.192;2022-12-11T04:03:58;7.73;;;6.30;;
40533;SDS011;26233;51.894;10.192;2022-12-11T04:06:25;7.53;;;6.17;;
40533;SDS011;26233;51.894;10.192;2022-12-11T04:08:55;7.63;;;5.90;;
40533;SDS011;26233;51.894;10.192;2022-12-11T04:11:22;7.50;;;6.27;;
40533;SDS011;26233;51.894;10.192;2022-12-11T04:14:02;6.73;;;5.93;;
40533;SDS011;26233;51.894;10.192;2022-12-11T04:16:50;7.97;;;6.70;;
40533;SDS011;26233;51.894;10.192;2022-12-11T04:19:17;7.50;;;6.00;;
40533;SDS011;26233;51.894;10.192;2022-12-11T04:22:03;8.37;;;7.00;;
40533;SDS011;26233;51.894;10.192;2022-12-11T04:24:48;7.90;;;6.30;;
40533;SDS011;26233;51.894;10.192;2022-12-11T04:27:15;7.93;;;6.77;;
40533;SDS011;26233;51.894;10.192;2022-12-11T04:30:03;7.57;;;6.50;;
40533;SDS011;26233;51.894;10.192;2022-12-11T04:32:34;7.63;;;6.70;;
40533;SDS011;26233;51.894;10.192;2022-12-11T04:35:02;8.13;;;6.57;;
40533;SDS011;26233;51.894;10.192;2022-12-11T04:37:31;8.33;;;7.07;;
40533;SDS011;26233;51.894;10.192;2022-12-11T04:39:58;9.00;;;7.47;;
40533;SDS011;26233;51.894;10.192;2022-12-11T04:42:25;9.63;;;7.40;;
40533;SDS011;26233;51.894;10.192;2022-12-11T04:44:52;8.93;;;7.67;;
40533;SDS011;26233;51.894;10.192;2022-12-11T04:47:19;9.30;;;7.40;;
40533;SDS011;26233;51.894;10.192;2022-12-11T04:49:48;9.03;;;7.23;;
40533;SDS011;26233;51.894;10.192;2022-12-11T04:52:18;10.00;;;8.30;;
40533;SDS011;26233;51.894;10.192;2022-12-11T04:54:45;9.67;;;7.87;;
40533;SDS011;26233;51.894;10.192;2022-12-11T04:57:12;8.43;;;7.30;;
40533;SDS011;26233;51.894;10.192;2022-12-11T04:59:39;10.77;;;8.17;;
40533;SDS011;26233;51.894;10.192;2022-12-11T05:02:06;10.37;;;8.50;;
40533;SDS011;26233;51.894;10.192;2022-12-11T05:04:34;11.50;;;8.60;;
40533;SDS011;26233;51.894;10.192;2022-12-11T05:07:02;9.47;;;8.00;;
40533;SDS011;26233;51.894;10.192;2022-12-11T05:09:29;9.67;;;8.30;;
40533;SDS011;26233;51.894;10.192;2022-12-11T05:11:56;9.87;;;7.93;;
40533;SDS011;26233;51.894;10.192;2022-12-11T05:14:23;9.67;;;8.07;;
40533;SDS011;26233;51.894;10.192;2022-12-11T05:16:51;8.70;;;7.37;;
40533;SDS011;26233;51.894;10.192;2022-12-11T05:19:18;9.30;;;7.57;;
40533;SDS011;26233;51.894;10.192;2022-12-11T05:21:45;11.00;;;8.03;;
40533;SDS011;26233;51.894;10.192;2022-12-11T05:24:14;9.20;;;8.17;;
40533;SDS011;26233;51.894;10.192;2022-12-11T05:26:43;9.67;;;7.80;;
40533;SDS011;26233;51.894;10.192;2022-12-11T05:29:10;10.47;;;8.07;;
40533;SDS011;26233;51.894;10.192;2022-12-11T05:31:37;9.37;;;7.73;;
40533;SDS011;26233;51.894;10.192;2022-12-11T05:34:04;9.00;;;7.93;;
40533;SDS011;26233;51.894;10.192;2022-12-11T05:36:31;8.87;;;7.27;;
40533;SDS011;26233;51.894;10.192;2022-12-11T05:38:59;9.10;;;7.70;;
40533;SDS011;26233;51.894;10.192;2022-12-11T05:41:29;9.17;;;7.57;;
40533;SDS011;26233;51.894;10.192;2022-12-11T05:43:57;9.37;;;7.87;;
40533;SDS011;26233;51.894;10.192;2022-12-11T05:46:26;10.23;;;7.53;;
40533;SDS011;26233;51.894;10.192;2022-12-11T05:48:55;8.70;;;7.10;;
40533;SDS011;26233;51.894;10.192;2022-12-11T05:51:25;8.00;;;6.87;;
40533;SDS011;26233;51.894;10.192;2022-12-11T05:53:55;10.17;;;8.00;;
40533;SDS011;26233;51.894;10.192;2022-12-11T05:56:23;10.10;;;8.13;;
40533;SDS011;26233;51.894;10.192;2022-12-11T05:58:54;9.13;;;7.83;;
40533;SDS011;26233;51.894;10.192;2022-12-11T06:01:23;9.97;;;8.40;;
40533;SDS011;26233;51.894;10.192;2022-12-11T06:03:52;9.80;;;8.30;;
40533;SDS011;26233;51.894;10.192;2022-12-11T06:06:20;10.00;;;8.07;;
40533;SDS011;26233;51.894;10.192;2022-12-11T06:08:48;11.03;;;8.37;;
40533;SDS011;26233;51.894;10.192;2022-12-11T06:11:16;11.20;;;8.73;;
40533;SDS011;26233;51.894;10.192;2022-12-11T06:13:43;10.10;;;8.20;;
40533;SDS011;26233;51.894;10.192;2022-12-11T06:16:11;10.47;;;8.57;;
40533;SDS011;26233;51.894;10.192;2022-12-11T06:18:39;10.80;;;8.53;;
40533;SDS011;26233;51.894;10.192;2022-12-11T06:21:12;10.87;;;8.23;;
40533;SDS011;26233;51.894;10.192;2022-12-11T06:23:42;10.00;;;8.40;;
40533;SDS011;26233;51.894;10.192;2022-12-11T06:26:12;11.57;;;8.80;;
40533;SDS011;26233;51.894;10.192;2022-12-11T06:28:41;10.93;;;8.10;;
40533;SDS011;26233;51.894;10.192;2022-12-11T06:31:09;10.00;;;8.40;;
40533;SDS011;26233;51.894;10.192;2022-12-11T06:33:38;10.23;;;8.07;;
40533;SDS011;26233;51.894;10.192;2022-12-11T06:36:09;9.13;;;7.93;;
40533;SDS011;26233;51.894;10.192;2022-12-11T06:38:40;10.63;;;8.80;;
40533;SDS011;26233;51.894;10.192;2022-12-11T06:41:07;10.63;;;8.37;;
40533;SDS011;26233;51.894;10.192;2022-12-11T06:43:36;11.13;;;8.73;;
40533;SDS011;26233;51.894;10.192;2022-12-11T06:46:05;10.63;;;8.50;;
40533;SDS011;26233;51.894;10.192;2022-12-11T06:48:35;11.90;;;9.10;;
40533;SDS011;26233;51.894;10.192;2022-12-11T06:51:06;10.77;;;8.33;;
40533;SDS011;26233;51.894;10.192;2022-12-11T06:53:35;10.73;;;8.80;;
40533;SDS011;26233;51.894;10.192;2022-12-11T06:56:03;10.83;;;8.90;;
40533;SDS011;26233;51.894;10.192;2022-12-11T06:58:32;10.00;;;8.43;;
40533;SDS011;26233;51.894;10.192;2022-12-11T07:01:00;10.27;;;8.47;;
40533;SDS011;26233;51.894;10.192;2022-12-11T07:03:28;10.57;;;8.33;;
40533;SDS011;26233;51.894;10.192;2022-12-11T07:05:59;10.63;;;8.47;;
40533;SDS011;26233;51.894;10.192;2022-12-11T07:08:27;10.50;;;8.60;;
40533;SDS011;26233;51.894;10.192;2022-12-11T07:11:00;10.07;;;8.73;;
40533;SDS011;26233;51.894;10.192;2022-12-11T07:13:29;9.33;;;7.93;;
40533;SDS011;26233;51.894;10.192;2022-12-11T07:15:56;11.97;;;10.33;;
40533;SDS011;26233;51.894;10.192;2022-12-11T07:18:24;14.87;;;12.10;;
40533;SDS011;26233;51.894;10.192;2022-12-11T07:20:51;12.90;;;10.37;;
40533;SDS011;26233;51.894;10.192;2022-12-11T07:23:20;11.03;;;9.50;;
40533;SDS011;26233;51.894;10.192;2022-12-11T07:25:47;10.90;;;8.70;;
40533;SDS011;26233;51.894;10.192;2022-12-11T07:28:14;10.97;;;8.67;;
40533;SDS011;26233;51.894;10.192;2022-12-11T07:30:44;11.17;;;8.27;;
40533;SDS011;26233;51.894;10.192;2022-12-11T07:33:11;10.33;;;8.60;;
40533;SDS011;26233;51.894;10.192;2022-12-11T07:35:38;11.20;;;8.83;;
40533;SDS011;26233;51.894;10.192;2022-12-11T07:38:05;11.27;;;8.33;;
40533;SDS011;26233;51.894;10.192;2022-12-11T07:40:34;9.30;;;7.93;;
40533;SDS011;26233;51.894;10.192;2022-12-11T07:43:02;9.20;;;8.20;;
40533;SDS011;26233;51.894;10.192;2022-12-11T07:45:29;10.93;;;8.47;;
40533;SDS011;26233;51.894;10.192;2022-12-11T07:47:56;9.70;;;8.10;;
40533;SDS011;26233;51.894;10.192;2022-12-11T07:50:23;11.13;;;8.37;;
40533;SDS011;26233;51.894;10.192;2022-12-11T07:52:50;11.10;;;8.43;;
40533;SDS011;26233;51.894;10.192;2022-12-11T07:55:17;9.63;;;7.67;;
40533;SDS011;26233;51.894;10.192;2022-12-11T07:57:46;9.77;;;8.20;;
40533;SDS011;26233;51.894;10.192;2022-12-11T08:00:13;10.07;;;8.30;;
40533;SDS011;26233;51.894;10.192;2022-12-11T08:02:43;9.23;;;8.03;;
40533;SDS011;26233;51.894;10.192;2022-12-11T08:05:11;12.20;;;9.07;;
40533;SDS011;26233;51.894;10.192;2022-12-11T08:07:38;12.17;;;9.57;;
40533;SDS011;26233;51.894;10.192;2022-12-11T08:10:05;10.53;;;8.77;;
40533;SDS011;26233;51.894;10.192;2022-12-11T08:12:33;11.50;;;9.97;;
40533;SDS011;26233;51.894;10.192;2022-12-11T08:15:01;11.07;;;9.37;;
40533;SDS011;26233;51.894;10.192;2022-12-11T08:17:29;12.30;;;10.30;;
40533;SDS011;26233;51.894;10.192;2022-12-11T08:19:56;11.07;;;9.10;;
40533;SDS011;26233;51.894;10.192;2022-12-11T08:22:23;12.27;;;9.53;;
40533;SDS011;26233;51.894;10.192;2022-12-11T08:24:50;12.47;;;9.63;;
40533;SDS011;26233;51.894;10.192;2022-12-11T08:27:17;9.43;;;7.93;;
40533;SDS011;26233;51.894;10.192;2022-12-11T08:29:44;10.23;;;8.67;;
40533;SDS011;26233;51.894;10.192;2022-12-11T08:32:13;10.27;;;8.13;;
40533;SDS011;26233;51.894;10.192;2022-12-11T08:34:43;9.67;;;7.90;;
40533;SDS011;26233;51.894;10.192;2022-12-11T08:37:10;9.57;;;7.53;;
40533;SDS011;26233;51.894;10.192;2022-12-11T08:39:37;8.20;;;7.30;;
40533;SDS011;26233;51.894;10.192;2022-12-11T08:42:05;9.90;;;8.03;;
40533;SDS011;26233;51.894;10.192;2022-12-11T08:44:32;8.33;;;7.43;;
40533;SDS011;26233;51.894;10.192;2022-12-11T08:46:59;10.37;;;7.60;;
40533;SDS011;26233;51.894;10.192;2022-12-11T08:49:28;9.73;;;7.40;;
40533;SDS011;26233;51.894;10.192;2022-12-11T08:51:55;7.57;;;6.73;;
40533;SDS011;26233;51.894;10.192;2022-12-11T08:54:22;8.70;;;7.80;;
40533;SDS011;26233;51.894;10.192;2022-12-11T08:56:49;9.63;;;7.60;;
40533;SDS011;26233;51.894;10.192;2022-12-11T08:59:16;8.90;;;7.83;;
40533;SDS011;26233;51.894;10.192;2022-12-11T09:01:43;9.43;;;7.83;;
40533;SDS011;26233;51.894;10.192;2022-12-11T09:04:10;9.00;;;6.97;;
40533;SDS011;26233;51.894;10.192;2022-12-11T09:06:39;7.97;;;6.77;;
40533;SDS011;26233;51.894;10.192;2022-12-11T09:09:08;9.27;;;7.23;;
40533;SDS011;26233;51.894;10.192;2022-12-11T09:11:36;8.00;;;7.17;;
40533;SDS011;26233;51.894;10.192;2022-12-11T09:14:04;10.67;;;7.60;;
40533;SDS011;26233;51.894;10.192;2022-12-11T09:16:32;9.70;;;8.10;;
40533;SDS011;26233;51.894;10.192;2022-12-11T09:19:05;11.27;;;8.90;;
40533;SDS011;26233;51.894;10.192;2022-12-11T09:21:34;9.30;;;8.30;;
40533;SDS011;26233;51.894;10.192;2022-12-11T09:24:02;10.10;;;8.70;;
40533;SDS011;26233;51.894;10.192;2022-12-11T09:26:30;10.40;;;8.87;;
40533;SDS011;26233;51.894;10.192;2022-12-11T09:28:57;9.57;;;7.50;;
40533;SDS011;26233;51.894;10.192;2022-12-11T09:31:25;8.63;;;6.63;;
40533;SDS011;26233;51.894;10.192;2022-12-11T09:33:54;7.73;;;6.40;;
40533;SDS011;26233;51.894;10.192;2022-12-11T09:36:23;7.37;;;6.23;;
40533;SDS011;26233;51.894;10.192;2022-12-11T09:38:51;6.17;;;5.57;;
40533;SDS011;26233;51.894;10.192;2022-12-11T09:41:33;6.93;;;5.17;;
40533;SDS011;26233;51.894;10.192;2022-12-11T09:44:08;6.50;;;5.40;;
40533;SDS011;26233;51.894;10.192;2022-12-11T09:46:58;7.03;;;5.63;;
40533;SDS011;26233;51.894;10.192;2022-12-11T09:49:27;5.53;;;4.97;;
40533;SDS011;26233;51.894;10.192;2022-12-11T09:52:03;6.27;;;5.37;;
40533;SDS011;26233;51.894;10.192;2022-12-11T09:54:38;5.87;;;4.80;;
40533;SDS011;26233;51.894;10.192;2022-12-11T09:57:16;7.10;;;5.70;;
40533;SDS011;26233;51.894;10.192;2022-12-11T10:00:00;10.37;;;7.60;;
40533;SDS011;26233;51.894;10.192;2022-12-11T10:02:46;10.07;;;8.60;;
40533;SDS011;26233;51.894;10.192;2022-12-11T10:05:32;11.33;;;9.43;;
40533;SDS011;26233;51.894;10.192;2022-12-11T10:08:10;10.43;;;9.00;;
40533;SDS011;26233;51.894;10.192;2022-12-11T10:10:43;10.20;;;8.70;;
40533;SDS011;26233;51.894;10.192;2022-12-11T10:13:23;9.43;;;8.23;;
40533;SDS011;26233;51.894;10.192;2022-12-11T10:16:03;8.90;;;8.00;;
40533;SDS011;26233;51.894;10.192;2022-12-11T10:18:37;8.10;;;7.07;;
40533;SDS011;26233;51.894;10.192;2022-12-11T10:21:05;8.30;;;6.90;;
40533;SDS011;26233;51.894;10.192;2022-12-11T10:23:33;7.10;;;5.83;;
40533;SDS011;26233;51.894;10.192;2022-12-11T10:26:09;7.20;;;6.13;;
40533;SDS011;26233;51.894;10.192;2022-12-11T10:28:43;6.33;;;5.40;;
40533;SDS011;26233;51.894;10.192;2022-12-11T10:31:12;7.33;;;5.70;;
40533;SDS011;26233;51.894;10.192;2022-12-11T10:33:48;5.90;;;5.33;;
40533;SDS011;26233;51.894;10.192;2022-12-11T10:36:24;6.67;;;5.47;;
40533;SDS011;26233;51.894;10.192;2022-12-11T10:38:54;6.50;;;5.17;;
40533;SDS011;26233;51.894;10.192;2022-12-11T10:41:23;5.67;;;4.70;;
40533;SDS011;26233;51.894;10.192;2022-12-11T10:44:14;6.33;;;5.17;;
40533;SDS011;26233;51.894;10.192;2022-12-11T10:46:43;5.00;;;4.40;;
40533;SDS011;26233;51.894;10.192;2022-12-11T10:49:19;6.13;;;4.70;;
40533;SDS011;26233;51.894;10.192;2022-12-11T10:51:49;4.70;;;4.07;;
40533;SDS011;26233;51.894;10.192;2022-12-11T10:54:26;4.70;;;3.97;;
40533;SDS011;26233;51.894;10.192;2022-12-11T10:56:58;4.87;;;4.37;;
40533;SDS011;26233;51.894;10.192;2022-12-11T10:59:31;5.87;;;4.67;;
40533;SDS011;26233;51.894;10.192;2022-12-11T11:02:02;4.93;;;4.43;;
40533;SDS011;26233;51.894;10.192;2022-12-11T11:04:31;5.20;;;4.30;;
40533;SDS011;26233;51.894;10.192;2022-12-11T11:07:03;5.83;;;4.47;;
40533;SDS011;26233;51.894;10.192;2022-12-11T11:09:39;5.57;;;4.13;;
40533;SDS011;26233;51.894;10.192;2022-12-11T11:12:16;4.67;;;4.17;;
40533;SDS011;26233;51.894;10.192;2022-12-11T11:14:56;4.67;;;3.83;;
40533;SDS011;26233;51.894;10.192;2022-12-11T11:17:29;6.33;;;5.67;;
40533;SDS011;26233;51.894;10.192;2022-12-11T11:20:11;6.33;;;5.60;;
40533;SDS011;26233;51.894;10.192;2022-12-11T11:22:43;7.03;;;6.13;;
40533;SDS011;26233;51.894;10.192;2022-12-11T11:25:17;6.87;;;5.90;;
40533;SDS011;26233;51.894;10.192;2022-12-11T11:27:50;8.20;;;6.47;;
40533;SDS011;26233;51.894;10.192;2022-12-11T11:30:22;7.00;;;5.70;;
40533;SDS011;26233;51.894;10.192;2022-12-11T11:32:52;6.67;;;5.73;;
40533;SDS011;26233;51.894;10.192;2022-12-11T11:35:23;6.87;;;5.87;;
40533;SDS011;26233;51.894;10.192;2022-12-11T11:37:53;7.43;;;6.43;;
40533;SDS011;26233;51.894;10.192;2022-12-11T11:40:27;6.77;;;5.83;;
40533;SDS011;26233;51.894;10.192;2022-12-11T11:43:07;8.17;;;5.83;;
40533;SDS011;26233;51.894;10.192;2022-12-11T11:45:48;7.83;;;6.00;;
40533;SDS011;26233;51.894;10.192;2022-12-11T11:48:23;6.53;;;5.57;;
40533;SDS011;26233;51.894;10.192;2022-12-11T11:50:58;6.43;;;5.10;;
40533;SDS011;26233;51.894;10.192;2022-12-11T11:53:37;6.57;;;5.10;;
40533;SDS011;26233;51.894;10.192;2022-12-11T11:56:09;6.43;;;4.97;;
40533;SDS011;26233;51.894;10.192;2022-12-11T11:58:44;5.47;;;4.60;;
40533;SDS011;26233;51.894;10.192;2022-12-11T12:01:24;5.37;;;4.77;;
40533;SDS011;26233;51.894;10.192;2022-12-11T12:03:51;5.73;;;5.03;;
40533;SDS011;26233;51.894;10.192;2022-12-11T12:06:23;6.20;;;5.27;;
40533;SDS011;26233;51.894;10.192;2022-12-11T12:09:02;5.97;;;5.17;;
40533;SDS011;26233;51.894;10.192;2022-12-11T12:11:44;4.97;;;4.47;;
40533;SDS011;26233;51.894;10.192;2022-12-11T12:14:19;6.83;;;5.27;;
40533;SDS011;26233;51.894;10.192;2022-12-11T12:16:54;5.37;;;4.43;;
40533;SDS011;26233;51.894;10.192;2022-12-11T12:19:48;6.33;;;4.73;;
40533;SDS011;26233;51.894;10.192;2022-12-11T12:22:26;4.80;;;4.37;;
40533;SDS011;26233;51.894;10.192;2022-12-11T12:25:09;5.43;;;4.67;;
40533;SDS011;26233;51.894;10.192;2022-12-11T12:27:45;5.90;;;4.33;;
40533;SDS011;26233;51.894;10.192;2022-12-11T12:30:24;5.40;;;4.50;;
40533;SDS011;26233;51.894;10.192;2022-12-11T12:33:04;7.47;;;4.30;;
40533;SDS011;26233;51.894;10.192;2022-12-11T12:35:55;5.20;;;4.70;;
40533;SDS011;26233;51.894;10.192;2022-12-11T12:38:33;6.03;;;4.70;;
40533;SDS011;26233;51.894;10.192;2022-12-11T12:41:13;6.53;;;4.97;;
40533;SDS011;26233;51.894;10.192;2022-12-11T12:43:50;8.07;;;5.50;;
40533;SDS011;26233;51.894;10.192;2022-12-11T12:46:32;5.73;;;4.60;;
40533;SDS011;26233;51.894;10.192;2022-12-11T12:49:24;5.67;;;4.70;;
40533;SDS011;26233;51.894;10.192;2022-12-11T12:52:04;4.90;;;4.33;;
40533;SDS011;26233;51.894;10.192;2022-12-11T12:54:37;5.93;;;5.30;;
40533;SDS011;26233;51.894;10.192;2022-12-11T12:57:06;6.60;;;5.37;;
40533;SDS011;26233;51.894;10.192;2022-12-11T12:59:33;5.33;;;4.80;;
40533;SDS011;26233;51.894;10.192;2022-12-11T13:02:01;5.77;;;5.17;;
40533;SDS011;26233;51.894;10.192;2022-12-11T13:04:38;7.13;;;5.37;;
40533;SDS011;26233;51.894;10.192;2022-12-11T13:07:12;7.47;;;6.20;;
40533;SDS011;26233;51.894;10.192;2022-12-11T13:09:53;7.63;;;5.93;;
40533;SDS011;26233;51.894;10.192;2022-12-11T13:12:29;6.30;;;5.27;;
40533;SDS011;26233;51.894;10.192;2022-12-11T13:17:50;7.07;;;5.80;;
40533;SDS011;26233;51.894;10.192;2022-12-11T13:20:19;6.43;;;5.40;;
40533;SDS011;26233;51.894;10.192;2022-12-11T13:22:51;5.90;;;5.30;;
40533;SDS011;26233;51.894;10.192;2022-12-11T13:25:46;6.00;;;5.40;;
40533;SDS011;26233;51.894;10.192;2022-12-11T13:28:22;6.23;;;4.83;;
40533;SDS011;26233;51.894;10.192;2022-12-11T13:30:59;6.00;;;5.20;;
40533;SDS011;26233;51.894;10.192;2022-12-11T13:33:30;6.77;;;5.73;;
40533;SDS011;26233;51.894;10.192;2022-12-11T13:36:13;6.70;;;6.00;;
40533;SDS011;26233;51.894;10.192;2022-12-11T13:38:52;7.00;;;6.30;;
40533;SDS011;26233;51.894;10.192;2022-12-11T13:41:23;7.17;;;6.10;;
40533;SDS011;26233;51.894;10.192;2022-12-11T13:43:50;7.60;;;6.80;;
40533;SDS011;26233;51.894;10.192;2022-12-11T13:46:19;8.47;;;7.10;;
40533;SDS011;26233;51.894;10.192;2022-12-11T13:48:54;7.17;;;6.43;;
40533;SDS011;26233;51.894;10.192;2022-12-11T13:51:32;7.63;;;6.83;;
40533;SDS011;26233;51.894;10.192;2022-12-11T13:54:06;7.93;;;6.80;;
40533;SDS011;26233;51.894;10.192;2022-12-11T13:56:40;7.30;;;6.50;;
40533;SDS011;26233;51.894;10.192;2022-12-11T13:59:32;7.73;;;6.53;;
40533;SDS011;26233;51.894;10.192;2022-12-11T14:02:03;7.00;;;6.20;;
40533;SDS011;26233;51.894;10.192;2022-12-11T14:04:38;7.37;;;5.87;;
40533;SDS011;26233;51.894;10.192;2022-12-11T14:07:07;6.97;;;6.27;;
40533;SDS011;26233;51.894;10.192;2022-12-11T14:09:38;7.17;;;6.10;;
40533;SDS011;26233;51.894;10.192;2022-12-11T14:12:12;6.33;;;5.57;;
40533;SDS011;26233;51.894;10.192;2022-12-11T14:14:44;6.73;;;5.83;;
40533;SDS011;26233;51.894;10.192;2022-12-11T14:17:18;7.03;;;6.20;;
40533;SDS011;26233;51.894;10.192;2022-12-11T14:19:50;7.57;;;6.73;;
40533;SDS011;26233;51.894;10.192;2022-12-11T14:22:21;7.47;;;6.67;;
40533;SDS011;26233;51.894;10.192;2022-12-11T14:24:50;7.60;;;6.50;;
40533;SDS011;26233;51.894;10.192;2022-12-11T14:27:19;6.67;;;5.77;;
40533;SDS011;26233;51.894;10.192;2022-12-11T14:29:47;7.17;;;6.07;;
40533;SDS011;26233;51.894;10.192;2022-12-11T14:32:16;6.83;;;6.13;;
40533;SDS011;26233;51.894;10.192;2022-12-11T14:34:52;9.60;;;7.90;;
40533;SDS011;26233;51.894;10.192;2022-12-11T14:37:21;9.13;;;7.50;;
40533;SDS011;26233;51.894;10.192;2022-12-11T14:39:54;7.13;;;6.27;;
40533;SDS011;26233;51.894;10.192;2022-12-11T14:42:26;7.43;;;6.00;;
40533;SDS011;26233;51.894;10.192;2022-12-11T14:44:57;6.13;;;5.47;;
40533;SDS011;26233;51.894;10.192;2022-12-11T14:47:31;5.97;;;5.23;;
40533;SDS011;26233;51.894;10.192;2022-12-11T14:50:04;6.67;;;5.10;;
40533;SDS011;26233;51.894;10.192;2022-12-11T14:52:44;5.20;;;4.70;;
40533;SDS011;26233;51.894;10.192;2022-12-11T14:55:15;5.83;;;5.23;;
40533;SDS011;26233;51.894;10.192;2022-12-11T14:57:47;5.00;;;4.47;;
40533;SDS011;26233;51.894;10.192;2022-12-11T15:00:22;5.83;;;5.10;;